Malone, Texas
Current Conditions -  °F | °C
As of 9:15 AM on Friday 31 Oct 2014 (Local Time) from KINJ Reporting Station
Clear Clear  
Wind Chill: 58°   Ceiling: Unl
Heat Index: 58°   Visibility: 10mi
Dew Point: 43°   Wind: 16mph
Humidity: 56%   Direction: 350°N
Pressure: 30.28"   Gusts: NA
Location:  31.92°N, 96.89°W
Report Text: KINJ 311415Z AUTO 35014KT 10SM CLR 15/06 A3028 RMK AO2 T01450059
Loading
Personal Weather Stations






























Interactive Weather Map
Tropical Storm Tracking
New forecast layout! Learn more

10-Day Weather Forecast

Advertisements
Track Severe Weather on mobile